createdAt,value
2019-05-02T00:00:01.488Z,4.90
2019-05-02T00:05:09.091Z,4.60
2019-05-02T00:10:15.474Z,9.93
2019-05-02T00:15:20.138Z,11.67
2019-05-02T00:20:25.834Z,10.70
2019-05-02T00:25:31.057Z,12.10
2019-05-02T00:30:36.156Z,16.10
2019-05-02T00:35:46.321Z,17.63
2019-05-02T00:40:48.338Z,10.53
2019-05-02T00:45:55.041Z,10.13
2019-05-02T00:50:59.566Z,7.80
2019-05-02T00:56:05.164Z,5.87
2019-05-02T01:01:12.330Z,5.93
2019-05-02T01:06:17.174Z,6.10
2019-05-02T01:11:21.817Z,8.73
2019-05-02T01:16:26.558Z,10.53
2019-05-02T01:21:34.023Z,9.40
2019-05-02T01:26:39.118Z,6.40
2019-05-02T01:31:49.899Z,5.77
2019-05-02T01:37:03.347Z,5.50
2019-05-02T01:42:08.092Z,6.57
2019-05-02T01:47:12.836Z,6.00
2019-05-02T01:52:23.769Z,6.83
2019-05-02T01:57:25.897Z,8.03
2019-05-02T02:02:32.811Z,9.73
2019-05-02T02:07:36.826Z,14.50
2019-05-02T02:13:02.178Z,11.13
2019-05-02T02:17:51.482Z,9.10
2019-05-02T02:22:56.585Z,10.07
2019-05-02T02:28:01.228Z,9.17
2019-05-02T02:33:07.609Z,7.93
2019-05-02T02:38:12.362Z,9.70
2019-05-02T02:43:33.488Z,13.83
2019-05-02T02:48:23.783Z,8.10
2019-05-02T02:53:31.605Z,8.97
2019-05-02T02:58:46.227Z,9.90
2019-05-02T03:03:42.937Z,11.33
2019-05-02T03:08:49.197Z,9.20
2019-05-02T03:14:06.184Z,7.30
2019-05-02T03:19:04.635Z,6.80
2019-05-02T03:24:09.277Z,7.60
2019-05-02T03:29:14.023Z,8.40
2019-05-02T03:34:18.765Z,7.60
2019-05-02T03:39:23.402Z,8.10
2019-05-02T03:44:28.035Z,8.07
2019-05-02T03:49:32.695Z,8.17
2019-05-02T03:54:48.681Z,9.13
2019-05-02T03:59:44.118Z,12.33
2019-05-02T04:04:54.330Z,19.40
2019-05-02T04:09:56.577Z,21.27
2019-05-02T04:15:01.445Z,18.80
2019-05-02T04:20:09.603Z,15.90
2019-05-02T04:25:12.542Z,18.20
2019-05-02T04:30:17.303Z,69.73
2019-05-02T04:35:22.034Z,30.10
2019-05-02T04:40:28.324Z,15.27
2019-05-02T04:45:47.304Z,14.27
2019-05-02T04:50:39.439Z,18.33
2019-05-02T04:55:52.128Z,15.00
2019-05-02T05:00:58.134Z,16.70
2019-05-02T05:05:59.480Z,19.83
2019-05-02T05:11:04.757Z,28.80
2019-05-02T05:16:15.268Z,20.07
2019-05-02T05:21:17.888Z,13.87
2019-05-02T05:26:22.887Z,12.47
2019-05-02T05:31:29.422Z,11.90
2019-05-02T05:36:35.123Z,12.90
2019-05-02T05:41:42.776Z,12.37
2019-05-02T05:46:48.901Z,13.30
2019-05-02T05:51:54.502Z,13.37
2019-05-02T05:56:59.211Z,12.33
2019-05-02T06:02:14.716Z,11.87
2019-05-02T06:07:20.044Z,12.33
2019-05-02T06:12:26.060Z,11.50
2019-05-02T06:17:31.521Z,11.70
2019-05-02T06:22:36.282Z,11.30
2019-05-02T06:27:40.881Z,9.63
2019-05-02T06:32:45.637Z,10.63
2019-05-02T06:37:51.862Z,10.23
2019-05-02T06:42:56.867Z,9.37
2019-05-02T06:48:01.494Z,9.80
2019-05-02T06:53:09.751Z,10.90
2019-05-02T06:58:12.532Z,10.63
2019-05-02T07:03:17.580Z,10.07
2019-05-02T07:08:22.348Z,10.33
2019-05-02T07:13:27.066Z,11.48
2019-05-02T07:18:33.243Z,10.30
2019-05-02T07:23:37.891Z,10.80
2019-05-02T07:28:45.741Z,10.40
2019-05-02T07:33:48.908Z,10.00
2019-05-02T07:38:57.610Z,10.37
2019-05-02T07:44:00.748Z,9.50
2019-05-02T07:49:06.053Z,8.80
2019-05-02T07:54:10.755Z,8.10
2019-05-02T07:59:18.681Z,8.53
2019-05-02T08:04:21.877Z,9.90
2019-05-02T08:09:26.720Z,10.30
2019-05-02T08:14:34.686Z,8.20
2019-05-02T08:19:41.814Z,9.90
2019-05-02T08:24:47.701Z,8.63
2019-05-02T08:29:53.379Z,8.03
2019-05-02T08:34:58.112Z,8.10
2019-05-02T08:40:05.362Z,8.50
2019-05-02T08:45:09.964Z,8.20
2019-05-02T08:50:14.605Z,7.47
2019-05-02T08:55:19.244Z,7.10
2019-05-02T09:00:24.098Z,9.33
2019-05-02T09:05:28.737Z,6.90
2019-05-02T09:10:37.028Z,6.30
2019-05-02T09:15:40.444Z,6.33
2019-05-02T09:20:46.908Z,6.57
2019-05-02T09:25:52.418Z,6.20
2019-05-02T09:30:57.373Z,6.03
2019-05-02T09:36:03.648Z,6.13
2019-05-02T09:41:16.907Z,6.07
2019-05-02T09:46:16.579Z,6.40
2019-05-02T09:51:23.448Z,6.23
2019-05-02T09:56:28.275Z,6.30
2019-05-02T10:01:34.639Z,5.93
2019-05-02T10:06:39.494Z,6.10
2019-05-02T10:11:44.232Z,5.40
2019-05-02T10:16:48.867Z,6.10
2019-05-02T10:21:56.225Z,6.53
2019-05-02T10:27:04.136Z,6.20
2019-05-02T10:32:07.624Z,5.73
2019-05-02T10:37:12.971Z,5.90
2019-05-02T10:42:19.040Z,6.27
2019-05-02T10:47:25.120Z,6.40
2019-05-02T10:52:32.189Z,5.20
2019-05-02T10:57:36.138Z,5.37
2019-05-02T11:02:45.492Z,5.97
2019-05-02T11:07:52.270Z,5.63
2019-05-02T11:13:14.946Z,5.40
2019-05-02T11:18:22.171Z,10.17
2019-05-02T11:23:28.760Z,6.50
2019-05-02T11:28:33.477Z,5.40
2019-05-02T11:33:38.227Z,5.10
2019-05-02T11:38:48.570Z,5.50
2019-05-02T11:43:49.249Z,5.37
2019-05-02T11:48:58.334Z,4.67
2019-05-02T11:54:07.618Z,4.77
2019-05-02T11:59:06.861Z,5.47
2019-05-02T12:04:16.739Z,5.60
2019-05-02T12:09:20.032Z,5.67
2019-05-02T12:15:02.403Z,4.83
2019-05-02T12:20:06.638Z,5.03
2019-05-02T12:25:12.772Z,5.00
2019-05-02T12:30:37.666Z,4.70
2019-05-02T12:35:43.225Z,4.80
2019-05-02T12:40:47.704Z,4.90
2019-05-02T12:45:52.977Z,4.60
2019-05-02T12:51:01.862Z,4.70
2019-05-02T12:56:07.074Z,4.63
2019-05-02T13:01:12.250Z,5.00
2019-05-02T13:06:17.264Z,5.03
2019-05-02T13:11:28.132Z,5.30
2019-05-02T13:16:33.527Z,6.33
2019-05-02T13:21:59.420Z,4.87
2019-05-02T13:27:04.424Z,4.90
2019-05-02T13:32:16.911Z,4.60
2019-05-02T13:37:22.425Z,4.60
2019-05-02T13:42:26.801Z,5.83
2019-05-02T13:47:32.518Z,4.73
2019-05-02T13:52:37.416Z,5.53
2019-05-02T13:57:46.960Z,6.60
2019-05-02T14:02:48.542Z,4.87
2019-05-02T14:07:57.198Z,4.73
2019-05-02T14:13:03.440Z,5.20
2019-05-02T14:18:08.301Z,4.87
2019-05-02T14:23:12.946Z,4.40
2019-05-02T14:28:17.687Z,4.30
2019-05-02T14:33:23.966Z,4.73
2019-05-02T14:38:28.612Z,5.10
2019-05-02T14:43:54.828Z,5.10
2019-05-02T14:48:59.601Z,5.60
2019-05-02T14:54:08.422Z,6.50
2019-05-02T14:59:15.287Z,6.53
2019-05-02T15:04:19.464Z,7.57
2019-05-02T15:09:26.775Z,7.30
2019-05-02T15:14:33.014Z,7.37
2019-05-02T15:19:38.203Z,7.40
2019-05-02T15:24:43.043Z,7.60
2019-05-02T15:29:47.693Z,30.10
2019-05-02T15:35:05.645Z,62.53
2019-05-02T15:45:20.386Z,10.93
2019-05-02T15:50:25.933Z,9.00
2019-05-02T15:55:32.453Z,8.10
2019-05-02T16:00:39.393Z,8.03
2019-05-02T16:05:45.882Z,7.67
2019-05-02T16:10:50.627Z,7.47
2019-05-02T16:15:57.172Z,7.70
2019-05-02T16:21:09.124Z,8.27
2019-05-02T16:26:15.201Z,7.73
2019-05-02T16:31:22.082Z,7.43
2019-05-02T16:36:35.692Z,6.97
2019-05-02T16:41:41.353Z,7.30
2019-05-02T16:46:46.404Z,7.83
2019-05-02T16:51:57.431Z,8.57
2019-05-02T16:57:03.519Z,8.03
2019-05-02T17:02:09.102Z,8.13
2019-05-02T17:07:17.215Z,11.70
2019-05-02T17:12:23.693Z,9.50
2019-05-02T17:17:31.653Z,9.87
2019-05-02T17:22:36.159Z,9.33
2019-05-02T17:27:42.641Z,9.67
2019-05-02T17:32:50.046Z,11.07
2019-05-02T17:37:54.794Z,10.93
2019-05-02T17:43:04.972Z,13.07
2019-05-02T17:48:15.725Z,11.50
2019-05-02T17:53:14.549Z,10.63
2019-05-02T17:58:19.293Z,10.17
2019-05-02T18:03:30.755Z,13.83
2019-05-02T18:08:31.940Z,41.17
2019-05-02T18:13:36.825Z,16.17
2019-05-02T18:18:43.690Z,17.47
2019-05-02T18:23:49.319Z,14.63
2019-05-02T18:28:57.217Z,13.63
2019-05-02T18:34:02.636Z,17.87
2019-05-02T18:39:08.958Z,13.03
2019-05-02T18:44:18.774Z,16.17
2019-05-02T18:49:25.172Z,20.67
2019-05-02T18:54:31.543Z,26.77
2019-05-02T18:59:36.304Z,33.77
2019-05-02T19:04:42.334Z,20.13
2019-05-02T19:09:51.063Z,20.97
2019-05-02T19:14:57.575Z,29.37
2019-05-02T19:19:59.884Z,28.10
2019-05-02T19:25:05.473Z,17.70
2019-05-02T19:30:11.201Z,13.83
2019-05-02T19:35:15.944Z,16.17
2019-05-02T19:40:28.147Z,12.60
2019-05-02T19:45:32.715Z,14.00
2019-05-02T19:50:41.698Z,15.87
2019-05-02T19:55:44.444Z,16.50
2019-05-02T20:00:49.593Z,12.13
2019-05-02T20:05:56.784Z,11.50
2019-05-02T20:11:02.171Z,12.30
2019-05-02T20:16:09.263Z,17.30
2019-05-02T20:21:32.668Z,14.17
2019-05-02T20:26:37.784Z,13.70
2019-05-02T20:31:42.525Z,16.27
2019-05-02T20:36:47.169Z,16.07
2019-05-02T20:41:53.649Z,15.10
2019-05-02T20:46:58.399Z,17.17
2019-05-02T20:52:03.522Z,15.40
2019-05-02T20:57:08.444Z,20.33
2019-05-02T21:02:13.387Z,16.50
2019-05-02T21:08:11.963Z,16.17
2019-05-02T21:13:17.945Z,14.70
2019-05-02T21:18:24.637Z,14.70
2019-05-02T21:23:41.872Z,13.53
2019-05-02T21:28:36.145Z,13.47
2019-05-02T21:33:42.711Z,14.40
2019-05-02T21:38:48.736Z,13.63
2019-05-02T21:43:55.004Z,15.30
2019-05-02T21:48:59.958Z,17.17
2019-05-02T21:54:09.181Z,15.00
2019-05-02T21:59:14.450Z,14.97
2019-05-02T22:04:19.079Z,15.13
2019-05-02T22:09:23.817Z,14.37
2019-05-02T22:14:29.698Z,15.00
2019-05-02T22:19:34.633Z,14.43
2019-05-02T22:24:39.477Z,14.53
2019-05-02T22:29:45.048Z,15.57
2019-05-02T22:34:49.891Z,14.37
2019-05-02T22:39:59.087Z,13.53
2019-05-02T22:45:05.205Z,13.73
2019-05-02T22:50:10.057Z,14.63
2019-05-02T22:55:14.670Z,13.90
2019-05-02T23:00:19.340Z,14.07
2019-05-02T23:05:24.042Z,16.17
2019-05-02T23:10:28.722Z,30.33
2019-05-02T23:15:33.461Z,31.67
2019-05-02T23:20:38.113Z,39.43
2019-05-02T23:25:59.437Z,37.90
2019-05-02T23:31:04.153Z,35.77
2019-05-02T23:36:08.828Z,28.47
2019-05-02T23:41:15.209Z,25.27
2019-05-02T23:46:22.225Z,19.07
2019-05-02T23:51:28.206Z,17.13
2019-05-02T23:56:32.717Z,17.33
